Time;durP1;ratioP1;P1;durP2;ratioP2;P2;SDS_P1;SDS_P2;PMS_P1;PMS_P2;Temp;Humidity;BMP_temperature;BMP_pressure;BME280_temperature;BME280_humidity;BME280_pressure;Samples;Min_cycle;Max_cycle;Signal;HPM_P1;HPM_P2
2021/11/12 00:12:46;;;;;;;58.30;31.73;;;;;;;6.20;72.84;98504.78;10438778;28;20414;-75
2021/11/12 00:18:07;;;;;;;62.35;31.17;;;;;;;6.17;73.01;98494.75;10435676;28;20395;-76
2021/11/12 00:23:30;;;;;;;59.95;29.58;;;;;;;6.19;72.90;98497.75;10418726;28;20045;-75
2021/11/12 00:28:55;;;;;;;58.72;31.35;;;;;;;6.15;72.96;98503.63;10433507;28;20053;-75
2021/11/12 00:40:05;;;;;;;64.70;31.85;;;;;;;6.20;73.27;98493.69;10436210;28;20110;-75
2021/11/12 00:45:28;;;;;;;61.00;30.60;;;;;;;6.25;73.03;98495.53;10447319;28;20049;-75
2021/11/12 00:56:11;;;;;;;58.70;31.25;;;;;;;6.12;73.03;98490.88;10446096;28;20106;-75
2021/11/12 01:01:34;;;;;;;62.70;30.73;;;;;;;6.13;72.96;98486.06;10431320;28;20531;-76
2021/11/12 01:06:56;;;;;;;67.53;33.45;;;;;;;6.12;73.12;98487.34;10417878;28;20143;-74
2021/11/12 01:12:17;;;;;;;63.40;32.05;;;;;;;6.09;72.87;98485.69;10431167;28;20049;-74
2021/11/12 01:17:41;;;;;;;65.70;33.33;;;;;;;6.07;72.74;98479.91;10418377;28;20075;-75
2021/11/12 01:23:03;;;;;;;61.55;31.15;;;;;;;6.05;73.12;98471.41;10417140;28;20048;-75
2021/11/12 01:28:24;;;;;;;66.60;33.10;;;;;;;6.08;73.33;98467.53;10417080;28;20373;-75
2021/11/12 01:33:46;;;;;;;61.28;31.17;;;;;;;6.07;72.78;98474.38;10430965;28;20076;-75
2021/11/12 01:39:10;;;;;;;65.43;31.00;;;;;;;6.01;72.98;98471.78;10416377;28;20056;-75
2021/11/12 01:44:36;;;;;;;63.22;30.42;;;;;;;6.01;72.97;98455.91;10416734;28;20051;-75
2021/11/12 01:50:03;;;;;;;57.05;30.58;;;;;;;6.05;73.37;98435.38;10417215;28;20486;-75
2021/11/12 01:56:13;;;;;;;58.83;30.38;;;;;;;6.05;73.27;98438.91;10431637;28;20080;-75
2021/11/12 02:01:09;;;;;;;62.28;30.60;;;;;;;6.06;73.09;98432.06;10435561;28;20404;-74
2021/11/12 02:06:31;;;;;;;62.38;30.52;;;;;;;6.05;73.45;98435.38;10415705;28;20045;-75
2021/11/12 02:12:01;;;;;;;62.53;31.40;;;;;;;6.01;72.68;98439.25;10415445;28;20120;-75
2021/11/12 02:17:24;;;;;;;59.33;31.02;;;;;;;6.07;73.09;98427.25;10416593;28;20049;-75
2021/11/12 02:22:47;;;;;;;63.58;31.08;;;;;;;6.12;73.07;98424.34;10429727;28;20404;-75
2021/11/12 02:28:12;;;;;;;60.08;30.45;;;;;;;6.12;72.89;98416.03;10415223;28;20045;-75
2021/11/12 02:33:33;;;;;;;64.85;31.55;;;;;;;6.16;73.21;98412.88;10429351;28;20504;-75
2021/11/12 02:38:55;;;;;;;56.95;30.65;;;;;;;6.14;73.08;98415.47;10415127;28;20507;-74
2021/11/12 02:44:16;;;;;;;54.40;28.35;;;;;;;6.16;73.52;98426.75;10428203;28;20052;-76
2021/11/12 02:49:37;;;;;;;51.67;27.50;;;;;;;6.11;72.93;98425.63;10419688;28;20102;-74
2021/11/12 02:54:59;;;;;;;55.50;29.33;;;;;;;5.97;73.06;98424.25;10436979;28;20463;-74
2021/11/12 03:00:22;;;;;;;55.33;28.25;;;;;;;5.90;73.33;98427.72;10422590;28;20053;-74
2021/11/12 03:05:43;;;;;;;52.53;28.27;;;;;;;5.84;73.36;98427.13;10436421;28;20040;-74
2021/11/12 03:11:05;;;;;;;50.97;26.90;;;;;;;5.77;73.33;98428.56;10436123;28;20090;-75
2021/11/12 03:16:26;;;;;;;52.53;27.48;;;;;;;5.69;73.29;98428.56;10435731;28;20049;-75
2021/11/12 03:21:48;;;;;;;55.25;26.58;;;;;;;5.67;73.28;98419.28;10421885;28;20057;-73
2021/11/12 03:27:30;;;;;;;54.08;28.10;;;;;;;5.66;73.21;98415.03;10421623;28;20059;-75
2021/11/12 05:58:51;;;;;;;50.30;26.90;;;;;;;5.54;73.96;98416.63;10487049;28;20131;-76
2021/11/12 06:04:13;;;;;;;53.60;26.98;;;;;;;5.51;73.63;98406.66;10443758;28;20051;-75
2021/11/12 06:09:34;;;;;;;49.97;26.15;;;;;;;5.54;74.09;98408.31;10473019;28;20072;-75
2021/11/12 06:14:55;;;;;;;51.88;28.05;;;;;;;5.49;73.66;98409.19;10456561;28;20048;-75
2021/11/12 06:20:16;;;;;;;50.13;26.27;;;;;;;5.41;73.80;98407.16;10469845;28;20064;-75
2021/11/12 06:25:38;;;;;;;50.10;26.80;;;;;;;5.34;74.19;98412.63;10468706;28;20127;-76
2021/11/12 06:31:00;;;;;;;52.28;27.40;;;;;;;5.30;74.35;98409.44;10469248;28;20502;-75
2021/11/12 06:36:23;;;;;;;51.65;26.95;;;;;;;5.33;74.20;98417.41;10470729;28;20446;-76
2021/11/12 06:52:46;;;;;;;43.53;24.33;;;;;;;5.26;74.34;98420.13;10472759;28;20052;-76
2021/11/12 06:58:08;;;;;;;48.53;24.95;;;;;;;5.25;74.06;98430.47;10469021;28;20449;-75
2021/11/12 07:03:30;;;;;;;45.60;23.63;;;;;;;5.33;74.50;98422.97;10455948;28;20407;-75
2021/11/12 07:08:52;;;;;;;48.53;26.67;;;;;;;5.34;73.98;98421.66;10456099;28;20043;-74
2021/11/12 07:14:13;;;;;;;50.38;24.95;;;;;;;5.39;74.04;98423.53;10469204;28;20384;-74
2021/11/12 07:19:34;;;;;;;46.78;24.70;;;;;;;5.38;73.76;98422.06;10483074;28;20040;-74
2021/11/12 07:24:56;;;;;;;43.38;23.35;;;;;;;5.22;73.87;98412.19;10469662;28;20410;-75
2021/11/12 07:30:19;;;;;;;48.70;24.25;;;;;;;5.25;73.38;98402.03;10469029;28;20048;-74
2021/11/12 07:35:49;;;;;;;45.78;23.90;;;;;;;5.28;73.82;98395.41;10459832;28;20048;-76
2021/11/12 07:52:35;;;;;;;49.40;26.40;;;;;;;5.26;73.60;98406.28;10481859;28;20518;-75
2021/11/12 07:57:57;;;;;;;47.63;25.00;;;;;;;5.30;73.97;98404.66;10476218;28;20103;-75
2021/11/12 08:03:19;;;;;;;45.58;26.38;;;;;;;5.39;73.91;98406.94;10475737;28;20059;-75
2021/11/12 08:08:43;;;;;;;50.47;27.33;;;;;;;5.48;73.80;98402.91;10461497;28;20045;-74
2021/11/12 08:14:11;;;;;;;49.23;27.83;;;;;;;5.49;73.14;98392.59;10475971;28;20115;-75
2021/11/12 08:19:40;;;;;;;50.97;29.08;;;;;;;5.45;73.30;98388.16;10462417;28;20098;-76
2021/11/12 08:47:39;;;;;;;54.30;29.75;;;;;;;5.57;72.92;98390.59;10455978;28;20056;-75
2021/11/12 08:53:06;;;;;;;55.67;30.02;;;;;;;5.68;72.93;98382.72;10434261;28;20061;-75
2021/11/12 08:58:27;;;;;;;52.28;28.42;;;;;;;5.74;72.75;98371.50;10468872;28;20127;-75
2021/11/12 09:03:49;;;;;;;56.30;31.17;;;;;;;5.69;72.20;98380.69;10459814;28;20056;-74
2021/11/12 09:09:11;;;;;;;58.10;31.77;;;;;;;5.71;72.02;98369.84;10473231;28;20044;-81
2021/11/12 09:14:32;;;;;;;58.38;32.17;;;;;;;5.65;71.98;98367.22;10487077;28;20499;-82
2021/11/12 09:19:57;;;;;;;55.05;31.02;;;;;;;5.71;72.25;98358.75;10473735;28;20040;-81
2021/11/12 09:25:18;;;;;;;60.65;33.00;;;;;;;5.88;72.13;98352.69;10487424;28;20043;-81
2021/11/12 09:30:39;;;;;;;61.20;33.05;;;;;;;5.85;71.25;98362.84;10486565;28;20411;-81
2021/11/12 09:36:01;;;;;;;55.42;30.58;;;;;;;5.80;71.49;98352.69;10486308;28;20052;-80
2021/11/12 09:41:22;;;;;;;54.65;30.95;;;;;;;5.84;71.01;98350.28;10486128;28;20495;-81
2021/11/12 09:46:43;;;;;;;52.47;30.70;;;;;;;5.80;71.07;98349.94;10471679;28;20505;-74
2021/11/12 09:52:07;;;;;;;55.95;31.95;;;;;;;5.87;71.68;98351.97;10485576;28;20131;-82
2021/11/12 09:57:30;;;;;;;59.07;33.87;;;;;;;5.96;71.04;98356.28;10485573;28;20036;-84
2021/11/12 10:02:52;;;;;;;55.88;32.45;;;;;;;5.98;70.51;98345.38;10485856;28;20044;-83
2021/11/12 10:08:24;;;;;;;54.42;32.47;;;;;;;6.05;70.62;98338.38;10485322;28;20051;-84
2021/11/12 10:13:46;;;;;;;54.17;31.52;;;;;;;6.09;70.65;98341.56;10486799;28;20044;-83
2021/11/12 10:19:18;;;;;;;56.13;31.60;;;;;;;6.11;69.52;98327.88;10486134;28;20064;-84
2021/11/12 10:24:41;;;;;;;56.88;29.75;;;;;;;6.21;69.53;98324.03;10499451;28;20044;-85
2021/11/12 10:30:08;;;;;;;56.33;32.85;;;;;;;6.12;69.38;98309.94;10485645;28;20047;-82
2021/11/12 10:35:30;;;;;;;58.45;30.80;;;;;;;6.29;69.93;98308.16;10484076;28;20511;-83
2021/11/12 10:40:51;;;;;;;54.00;31.23;;;;;;;6.40;69.85;98303.53;10485003;28;20037;-81
2021/11/12 10:46:13;;;;;;;61.28;32.38;;;;;;;6.29;68.44;98297.06;10485395;28;20563;-82
2021/11/12 10:51:34;;;;;;;54.08;30.30;;;;;;;6.31;69.38;98282.63;10470262;28;20514;-81
2021/11/12 10:56:55;;;;;;;56.28;32.63;;;;;;;6.47;69.21;98266.75;10497215;28;20380;-81
2021/11/12 11:02:23;;;;;;;60.50;34.58;;;;;;;6.54;68.15;98258.41;10483509;28;20044;-83
2021/11/12 11:07:58;;;;;;;62.00;34.35;;;;;;;6.57;68.81;98262.88;10483786;28;20032;-81
2021/11/12 11:13:29;;;;;;;57.90;33.40;;;;;;;6.54;67.88;98254.91;10492171;28;20048;-86
2021/11/12 11:18:54;;;;;;;58.50;34.22;;;;;;;6.43;68.04;98249.72;10490662;28;20080;-75
2021/11/12 11:24:17;;;;;;;55.85;32.75;;;;;;;6.42;67.79;98243.44;10477740;28;20037;-77
2021/11/12 11:29:38;;;;;;;59.35;34.45;;;;;;;6.45;67.18;98250.66;10490779;28;20045;-75
2021/11/12 11:34:59;;;;;;;52.35;31.92;;;;;;;6.42;67.77;98240.66;10475881;28;20467;-76
2021/11/12 11:40:21;;;;;;;56.40;32.60;;;;;;;6.32;66.96;98242.50;10476222;28;20169;-78
2021/11/12 11:45:46;;;;;;;58.92;32.47;;;;;;;6.52;68.53;98236.03;10490129;28;20044;-78
2021/11/12 11:51:07;;;;;;;61.60;34.42;;;;;;;6.67;67.41;98234.56;10490646;28;20099;-80
2021/11/12 11:56:30;;;;;;;61.15;34.90;;;;;;;6.76;67.60;98234.00;10475744;28;20105;-82
2021/11/12 12:01:54;;;;;;;62.70;35.50;;;;;;;6.70;66.87;98220.31;10476328;28;20123;-85
2021/11/12 12:07:18;;;;;;;54.75;32.42;;;;;;;6.60;67.34;98200.72;10490295;28;20048;-84
2021/11/12 12:12:41;;;;;;;62.67;35.70;;;;;;;6.64;67.08;98192.00;10477749;28;20111;-90
2021/11/12 12:18:10;;;;;;;55.55;32.80;;;;;;;6.73;66.91;98185.16;10492173;28;20044;-88
2021/11/12 13:25:36;;;;;;;52.15;27.58;;;;;;;6.62;66.00;98118.97;10501040;28;20040;-83
2021/11/12 13:31:23;;;;;;;48.50;28.25;;;;;;;6.60;66.00;98117.50;10473138;28;20430;-80
2021/11/12 13:36:45;;;;;;;44.30;25.23;;;;;;;6.46;66.00;98107.91;10499790;28;20052;-83
2021/11/12 13:42:09;;;;;;;49.97;25.92;;;;;;;6.45;66.11;98106.44;10485871;28;20066;-81
2021/11/12 13:47:30;;;;;;;46.33;25.92;;;;;;;6.42;65.84;98112.38;10485935;28;20041;-80
2021/11/12 13:52:50;;;;;;;43.33;23.85;;;;;;;6.34;65.74;98106.84;10458172;28;20060;-81
2021/11/12 13:58:11;;;;;;;37.50;22.13;;;;;;;6.31;66.44;98107.97;10485320;28;20384;-82
2021/11/12 14:03:34;;;;;;;44.78;23.40;;;;;;;6.18;66.08;98102.63;10486188;28;20417;-79
2021/11/12 14:09:02;;;;;;;41.65;23.25;;;;;;;6.14;66.05;98111.31;10471091;28;20490;-78
2021/11/12 14:14:24;;;;;;;37.85;22.38;;;;;;;6.16;66.33;98111.47;10570268;27;20398;-78
2021/11/12 14:20:11;;;;;;;40.78;22.80;;;;;;;6.02;66.54;98116.50;10596282;27;20537;-80
2021/11/12 14:36:30;;;;;;;41.88;22.67;;;;;;;5.91;67.28;98082.88;10596789;27;20124;-82
2021/11/12 14:58:50;;;;;;;44.70;24.38;;;;;;;5.68;67.91;98061.41;10618264;27;20049;-82
2021/11/12 15:04:11;;;;;;;42.47;24.60;;;;;;;5.69;68.24;98056.63;10605334;27;20549;-81
2021/11/12 15:09:35;;;;;;;45.80;24.55;;;;;;;5.72;67.99;98055.53;10589696;27;20117;-82
2021/11/12 15:14:58;;;;;;;44.60;24.80;;;;;;;5.72;68.43;98050.72;10618492;27;20039;-75
2021/11/12 15:20:20;;;;;;;41.92;23.80;;;;;;;5.69;68.18;98056.63;10617968;27;20096;-81
2021/11/12 15:31:30;;;;;;;45.50;22.05;;;;;;;5.61;68.30;98070.50;10619437;27;20043;-80
2021/11/12 15:47:53;;;;;;;35.10;21.38;;;;;;;5.39;68.48;98063.63;10604895;27;20043;-84
2021/11/12 16:26:26;;;;;;;28.08;16.77;;;;;;;5.45;68.76;98072.50;10602563;27;20047;-81
2021/11/12 16:31:48;;;;;;;26.00;17.33;;;;;;;5.46;68.55;98073.97;10614683;27;20095;-79
2021/11/12 16:37:11;;;;;;;23.65;16.67;;;;;;;5.35;68.46;98066.03;10585192;27;20092;-82
2021/11/12 16:42:46;;;;;;;24.48;15.90;;;;;;;5.27;68.46;98065.28;10600048;27;20398;-81
2021/11/12 16:54:12;;;;;;;25.20;16.17;;;;;;;5.32;69.02;98056.06;10614326;27;20042;-80
2021/11/12 16:59:44;;;;;;;21.65;15.27;;;;;;;5.32;69.09;98053.31;10607360;27;20496;-81
2021/11/12 21:51:40;;;;;;;16.92;11.90;;;;;;;5.11;71.14;97953.06;10599407;27;20059;-81
2021/11/12 21:57:02;;;;;;;18.38;11.93;;;;;;;5.24;71.42;97941.84;10583028;27;20043;-80
2021/11/12 22:02:24;;;;;;;15.48;11.43;;;;;;;5.26;71.21;97933.72;10582045;27;20050;-80
2021/11/12 22:07:45;;;;;;;17.70;12.25;;;;;;;5.20;71.43;97935.19;10595830;27;20039;-79
2021/11/12 22:13:06;;;;;;;17.00;12.43;;;;;;;5.23;71.67;97939.63;10581587;27;20043;-80
2021/11/12 22:18:27;;;;;;;17.05;12.20;;;;;;;5.23;71.58;97934.84;10568406;27;20050;-77
2021/11/12 22:23:48;;;;;;;17.23;11.57;;;;;;;5.24;71.71;97941.84;10581378;27;20043;-80
2021/11/12 22:29:11;;;;;;;17.60;12.20;;;;;;;5.21;72.00;97925.59;10580916;27;20069;-80
2021/11/12 22:34:32;;;;;;;15.30;11.82;;;;;;;5.24;71.75;97925.22;10581278;27;20039;-80
2021/11/12 22:39:53;;;;;;;16.80;11.68;;;;;;;5.22;72.19;97930.59;10580928;27;20047;-79
2021/11/12 22:45:16;;;;;;;15.80;11.73;;;;;;;5.25;72.54;97935.00;10595463;28;20118;-81
2021/11/12 22:50:38;;;;;;;17.13;12.00;;;;;;;5.26;72.15;97922.63;10581292;28;20123;-81
2021/11/12 22:55:58;;;;;;;19.40;12.45;;;;;;;5.29;72.53;97924.28;10580353;28;20043;-80
2021/11/12 23:01:22;;;;;;;18.98;12.50;;;;;;;5.29;73.09;97910.44;10609045;28;20108;-80
2021/11/12 23:06:44;;;;;;;18.83;12.32;;;;;;;5.29;72.45;97910.44;10585480;27;20122;-78
2021/11/12 23:12:06;;;;;;;18.10;11.70;;;;;;;5.27;72.79;97910.28;10603279;27;20077;-83
2021/11/12 23:17:27;;;;;;;19.63;13.02;;;;;;;5.25;72.67;97904.56;10586544;27;20051;-80
2021/11/12 23:22:48;;;;;;;16.63;12.23;;;;;;;5.33;73.10;97893.50;10602614;27;20091;-77
2021/11/12 23:28:09;;;;;;;22.13;12.57;;;;;;;5.27;73.38;97890.91;10574448;27;20100;-80
2021/11/12 23:33:30;;;;;;;19.25;12.25;;;;;;;5.30;72.55;97880.75;10571461;27;20063;-79
2021/11/12 23:38:52;;;;;;;17.70;12.00;;;;;;;5.35;73.10;97886.09;10601721;27;20108;-81
2021/11/12 23:44:12;;;;;;;17.40;12.27;;;;;;;5.29;73.05;97893.84;10570379;27;20051;-78
2021/11/12 23:49:33;;;;;;;18.48;11.95;;;;;;;5.32;73.50;97881.69;10587177;27;20066;-80
2021/11/12 23:54:55;;;;;;;16.33;11.45;;;;;;;5.33;72.91;97885.91;10615303;27;20039;-80
